sensor_id;sensor_type;location;lat;lon;timestamp;P1;durP1;ratioP1;P2;durP2;ratioP2
25125;SDS011;13106;50.808;5.670;2023-04-25T00:00:48;16.35;;;5.68;;
25125;SDS011;13106;50.808;5.670;2023-04-25T00:03:15;18.73;;;6.13;;
25125;SDS011;13106;50.808;5.670;2023-04-25T00:05:41;17.27;;;5.90;;
25125;SDS011;13106;50.808;5.670;2023-04-25T00:08:07;15.23;;;6.03;;
25125;SDS011;13106;50.808;5.670;2023-04-25T00:10:33;17.77;;;6.03;;
25125;SDS011;13106;50.808;5.670;2023-04-25T00:12:59;18.48;;;6.15;;
25125;SDS011;13106;50.808;5.670;2023-04-25T00:15:27;19.30;;;5.55;;
25125;SDS011;13106;50.808;5.670;2023-04-25T00:17:55;15.50;;;5.30;;
25125;SDS011;13106;50.808;5.670;2023-04-25T00:20:21;20.67;;;5.05;;
25125;SDS011;13106;50.808;5.670;2023-04-25T00:22:48;15.43;;;5.10;;
25125;SDS011;13106;50.808;5.670;2023-04-25T00:25:14;14.30;;;5.30;;
25125;SDS011;13106;50.808;5.670;2023-04-25T00:27:40;17.23;;;5.03;;
25125;SDS011;13106;50.808;5.670;2023-04-25T00:30:07;16.05;;;5.35;;
25125;SDS011;13106;50.808;5.670;2023-04-25T00:32:33;23.02;;;5.78;;
25125;SDS011;13106;50.808;5.670;2023-04-25T00:34:59;14.05;;;4.85;;
25125;SDS011;13106;50.808;5.670;2023-04-25T00:37:25;19.27;;;6.15;;
25125;SDS011;13106;50.808;5.670;2023-04-25T00:39:51;19.95;;;4.95;;
25125;SDS011;13106;50.808;5.670;2023-04-25T00:42:20;17.38;;;5.32;;
25125;SDS011;13106;50.808;5.670;2023-04-25T00:44:46;16.63;;;5.75;;
25125;SDS011;13106;50.808;5.670;2023-04-25T00:47:12;14.30;;;5.65;;
25125;SDS011;13106;50.808;5.670;2023-04-25T00:49:39;20.20;;;5.13;;
25125;SDS011;13106;50.808;5.670;2023-04-25T00:52:05;21.45;;;5.90;;
25125;SDS011;13106;50.808;5.670;2023-04-25T00:54:31;18.33;;;5.80;;
25125;SDS011;13106;50.808;5.670;2023-04-25T00:56:57;15.57;;;5.47;;
25125;SDS011;13106;50.808;5.670;2023-04-25T00:59:23;19.52;;;5.80;;
25125;SDS011;13106;50.808;5.670;2023-04-25T01:01:49;20.50;;;7.20;;
25125;SDS011;13106;50.808;5.670;2023-04-25T01:04:15;17.60;;;5.47;;
25125;SDS011;13106;50.808;5.670;2023-04-25T01:06:41;17.92;;;5.95;;
25125;SDS011;13106;50.808;5.670;2023-04-25T01:09:07;19.05;;;5.95;;
25125;SDS011;13106;50.808;5.670;2023-04-25T01:11:34;18.38;;;5.93;;
25125;SDS011;13106;50.808;5.670;2023-04-25T01:14:00;15.15;;;5.88;;
25125;SDS011;13106;50.808;5.670;2023-04-25T01:16:27;17.38;;;5.95;;
25125;SDS011;13106;50.808;5.670;2023-04-25T01:18:53;15.95;;;6.88;;
25125;SDS011;13106;50.808;5.670;2023-04-25T01:21:20;21.08;;;6.65;;
25125;SDS011;13106;50.808;5.670;2023-04-25T01:23:46;22.55;;;7.80;;
25125;SDS011;13106;50.808;5.670;2023-04-25T01:26:12;14.95;;;5.57;;
25125;SDS011;13106;50.808;5.670;2023-04-25T01:28:38;23.85;;;6.35;;
25125;SDS011;13106;50.808;5.670;2023-04-25T01:31:08;19.50;;;6.22;;
25125;SDS011;13106;50.808;5.670;2023-04-25T01:33:34;16.55;;;6.50;;
25125;SDS011;13106;50.808;5.670;2023-04-25T01:36:00;21.55;;;6.57;;
25125;SDS011;13106;50.808;5.670;2023-04-25T01:38:26;22.27;;;6.85;;
25125;SDS011;13106;50.808;5.670;2023-04-25T01:40:53;19.95;;;7.03;;
25125;SDS011;13106;50.808;5.670;2023-04-25T01:43:19;19.83;;;6.75;;
25125;SDS011;13106;50.808;5.670;2023-04-25T01:45:45;21.17;;;7.47;;
25125;SDS011;13106;50.808;5.670;2023-04-25T01:48:12;20.35;;;6.13;;
25125;SDS011;13106;50.808;5.670;2023-04-25T01:50:39;14.25;;;6.80;;
25125;SDS011;13106;50.808;5.670;2023-04-25T01:53:05;16.30;;;6.93;;
25125;SDS011;13106;50.808;5.670;2023-04-25T01:55:31;15.50;;;5.72;;
25125;SDS011;13106;50.808;5.670;2023-04-25T01:57:57;14.52;;;5.47;;
25125;SDS011;13106;50.808;5.670;2023-04-25T02:00:25;19.00;;;6.15;;
25125;SDS011;13106;50.808;5.670;2023-04-25T02:02:51;15.80;;;5.57;;
25125;SDS011;13106;50.808;5.670;2023-04-25T02:05:18;19.70;;;5.82;;
25125;SDS011;13106;50.808;5.670;2023-04-25T02:07:45;17.63;;;5.20;;
25125;SDS011;13106;50.808;5.670;2023-04-25T02:10:11;16.65;;;5.50;;
25125;SDS011;13106;50.808;5.670;2023-04-25T02:12:37;16.70;;;5.45;;
25125;SDS011;13106;50.808;5.670;2023-04-25T02:15:04;15.73;;;5.20;;
25125;SDS011;13106;50.808;5.670;2023-04-25T02:17:30;16.58;;;4.22;;
25125;SDS011;13106;50.808;5.670;2023-04-25T02:19:57;16.23;;;4.45;;
25125;SDS011;13106;50.808;5.670;2023-04-25T02:22:23;15.77;;;4.78;;
25125;SDS011;13106;50.808;5.670;2023-04-25T02:24:49;15.07;;;4.38;;
25125;SDS011;13106;50.808;5.670;2023-04-25T02:27:15;13.88;;;4.57;;
25125;SDS011;13106;50.808;5.670;2023-04-25T02:29:41;13.00;;;4.40;;
25125;SDS011;13106;50.808;5.670;2023-04-25T02:32:07;21.88;;;4.88;;
25125;SDS011;13106;50.808;5.670;2023-04-25T02:34:33;21.60;;;6.38;;
25125;SDS011;13106;50.808;5.670;2023-04-25T02:37:00;16.92;;;5.40;;
25125;SDS011;13106;50.808;5.670;2023-04-25T02:39:26;17.42;;;5.13;;
25125;SDS011;13106;50.808;5.670;2023-04-25T02:41:52;19.77;;;6.20;;
25125;SDS011;13106;50.808;5.670;2023-04-25T02:44:18;20.05;;;5.85;;
25125;SDS011;13106;50.808;5.670;2023-04-25T02:46:45;13.13;;;5.30;;
25125;SDS011;13106;50.808;5.670;2023-04-25T02:49:11;20.40;;;5.07;;
25125;SDS011;13106;50.808;5.670;2023-04-25T02:51:37;12.93;;;4.97;;
25125;SDS011;13106;50.808;5.670;2023-04-25T02:54:03;15.10;;;4.40;;
25125;SDS011;13106;50.808;5.670;2023-04-25T02:56:29;24.13;;;5.03;;
25125;SDS011;13106;50.808;5.670;2023-04-25T02:58:55;19.10;;;5.03;;
25125;SDS011;13106;50.808;5.670;2023-04-25T03:01:21;15.15;;;4.57;;
25125;SDS011;13106;50.808;5.670;2023-04-25T03:03:47;16.70;;;4.68;;
25125;SDS011;13106;50.808;5.670;2023-04-25T03:06:13;22.58;;;4.82;;
25125;SDS011;13106;50.808;5.670;2023-04-25T03:08:40;14.73;;;6.13;;
25125;SDS011;13106;50.808;5.670;2023-04-25T03:11:06;19.23;;;5.47;;
25125;SDS011;13106;50.808;5.670;2023-04-25T03:13:32;15.25;;;4.70;;
25125;SDS011;13106;50.808;5.670;2023-04-25T03:15:58;15.13;;;4.78;;
25125;SDS011;13106;50.808;5.670;2023-04-25T03:18:25;18.60;;;4.68;;
25125;SDS011;13106;50.808;5.670;2023-04-25T03:20:51;19.98;;;4.95;;
25125;SDS011;13106;50.808;5.670;2023-04-25T03:23:17;15.48;;;4.53;;
25125;SDS011;13106;50.808;5.670;2023-04-25T03:25:43;16.90;;;5.15;;
25125;SDS011;13106;50.808;5.670;2023-04-25T03:28:09;22.77;;;5.05;;
25125;SDS011;13106;50.808;5.670;2023-04-25T03:30:35;18.48;;;5.13;;
25125;SDS011;13106;50.808;5.670;2023-04-25T03:33:01;14.85;;;4.32;;
25125;SDS011;13106;50.808;5.670;2023-04-25T03:35:27;15.98;;;4.90;;
25125;SDS011;13106;50.808;5.670;2023-04-25T03:37:53;18.50;;;4.63;;
25125;SDS011;13106;50.808;5.670;2023-04-25T03:40:19;15.95;;;4.80;;
25125;SDS011;13106;50.808;5.670;2023-04-25T03:42:45;15.82;;;4.45;;
25125;SDS011;13106;50.808;5.670;2023-04-25T03:45:11;17.20;;;4.90;;
25125;SDS011;13106;50.808;5.670;2023-04-25T03:47:37;20.73;;;4.38;;
25125;SDS011;13106;50.808;5.670;2023-04-25T03:50:03;20.98;;;5.35;;
25125;SDS011;13106;50.808;5.670;2023-04-25T03:52:30;21.02;;;5.30;;
25125;SDS011;13106;50.808;5.670;2023-04-25T03:54:56;16.58;;;5.00;;
25125;SDS011;13106;50.808;5.670;2023-04-25T03:57:22;29.27;;;6.03;;
25125;SDS011;13106;50.808;5.670;2023-04-25T03:59:48;15.68;;;5.03;;
25125;SDS011;13106;50.808;5.670;2023-04-25T04:02:14;20.50;;;5.03;;
25125;SDS011;13106;50.808;5.670;2023-04-25T04:04:40;19.30;;;5.60;;
25125;SDS011;13106;50.808;5.670;2023-04-25T04:07:06;18.77;;;5.90;;
25125;SDS011;13106;50.808;5.670;2023-04-25T04:09:32;14.43;;;5.05;;
25125;SDS011;13106;50.808;5.670;2023-04-25T04:11:58;13.95;;;4.90;;
25125;SDS011;13106;50.808;5.670;2023-04-25T04:14:26;18.67;;;6.07;;
25125;SDS011;13106;50.808;5.670;2023-04-25T04:16:52;13.05;;;5.78;;
25125;SDS011;13106;50.808;5.670;2023-04-25T04:19:18;20.08;;;5.68;;
25125;SDS011;13106;50.808;5.670;2023-04-25T04:21:44;16.42;;;5.90;;
25125;SDS011;13106;50.808;5.670;2023-04-25T04:24:10;22.17;;;5.28;;
25125;SDS011;13106;50.808;5.670;2023-04-25T04:26:36;19.02;;;5.88;;
25125;SDS011;13106;50.808;5.670;2023-04-25T04:29:03;19.80;;;5.22;;
25125;SDS011;13106;50.808;5.670;2023-04-25T04:31:30;20.08;;;5.90;;
25125;SDS011;13106;50.808;5.670;2023-04-25T04:33:57;17.15;;;5.57;;
25125;SDS011;13106;50.808;5.670;2023-04-25T04:36:23;19.88;;;6.00;;
25125;SDS011;13106;50.808;5.670;2023-04-25T04:38:51;12.90;;;5.40;;
25125;SDS011;13106;50.808;5.670;2023-04-25T04:41:17;16.17;;;5.57;;
25125;SDS011;13106;50.808;5.670;2023-04-25T04:43:44;25.75;;;5.50;;
25125;SDS011;13106;50.808;5.670;2023-04-25T04:46:10;14.10;;;5.80;;
25125;SDS011;13106;50.808;5.670;2023-04-25T04:48:37;18.52;;;5.60;;
25125;SDS011;13106;50.808;5.670;2023-04-25T04:51:05;18.42;;;6.40;;
25125;SDS011;13106;50.808;5.670;2023-04-25T04:53:31;20.52;;;6.03;;
25125;SDS011;13106;50.808;5.670;2023-04-25T04:55:57;25.45;;;6.65;;
25125;SDS011;13106;50.808;5.670;2023-04-25T04:58:23;18.13;;;5.82;;
25125;SDS011;13106;50.808;5.670;2023-04-25T05:00:49;16.48;;;5.78;;
25125;SDS011;13106;50.808;5.670;2023-04-25T05:03:15;16.27;;;6.20;;
25125;SDS011;13106;50.808;5.670;2023-04-25T05:05:41;21.33;;;6.03;;
25125;SDS011;13106;50.808;5.670;2023-04-25T05:08:07;18.00;;;5.70;;
25125;SDS011;13106;50.808;5.670;2023-04-25T05:10:33;19.60;;;5.55;;
25125;SDS011;13106;50.808;5.670;2023-04-25T05:12:59;19.00;;;5.68;;
25125;SDS011;13106;50.808;5.670;2023-04-25T05:15:25;21.17;;;5.60;;
25125;SDS011;13106;50.808;5.670;2023-04-25T05:17:51;17.80;;;5.40;;
25125;SDS011;13106;50.808;5.670;2023-04-25T05:20:17;20.92;;;6.03;;
25125;SDS011;13106;50.808;5.670;2023-04-25T05:22:44;17.65;;;5.28;;
25125;SDS011;13106;50.808;5.670;2023-04-25T05:25:10;17.17;;;5.05;;
25125;SDS011;13106;50.808;5.670;2023-04-25T05:27:36;24.35;;;5.28;;
25125;SDS011;13106;50.808;5.670;2023-04-25T05:30:03;20.92;;;4.80;;
25125;SDS011;13106;50.808;5.670;2023-04-25T05:32:30;27.17;;;5.97;;
25125;SDS011;13106;50.808;5.670;2023-04-25T05:34:56;27.10;;;6.13;;
25125;SDS011;13106;50.808;5.670;2023-04-25T05:37:22;26.30;;;5.53;;
25125;SDS011;13106;50.808;5.670;2023-04-25T05:39:48;20.35;;;5.95;;
25125;SDS011;13106;50.808;5.670;2023-04-25T05:42:14;23.23;;;5.28;;
25125;SDS011;13106;50.808;5.670;2023-04-25T05:44:40;20.95;;;6.18;;
25125;SDS011;13106;50.808;5.670;2023-04-25T05:47:06;20.27;;;5.18;;
25125;SDS011;13106;50.808;5.670;2023-04-25T05:49:32;22.80;;;5.70;;
25125;SDS011;13106;50.808;5.670;2023-04-25T05:51:58;20.83;;;5.85;;
25125;SDS011;13106;50.808;5.670;2023-04-25T05:54:24;20.35;;;5.63;;
25125;SDS011;13106;50.808;5.670;2023-04-25T05:56:50;25.23;;;5.47;;
25125;SDS011;13106;50.808;5.670;2023-04-25T05:59:16;19.73;;;5.18;;
25125;SDS011;13106;50.808;5.670;2023-04-25T06:01:42;22.20;;;4.88;;
25125;SDS011;13106;50.808;5.670;2023-04-25T06:04:08;18.85;;;5.15;;
25125;SDS011;13106;50.808;5.670;2023-04-25T06:06:34;23.60;;;5.57;;
25125;SDS011;13106;50.808;5.670;2023-04-25T06:09:00;19.70;;;5.28;;
25125;SDS011;13106;50.808;5.670;2023-04-25T06:11:26;25.33;;;5.47;;
25125;SDS011;13106;50.808;5.670;2023-04-25T06:13:53;18.90;;;4.97;;
25125;SDS011;13106;50.808;5.670;2023-04-25T06:16:19;21.65;;;5.45;;
25125;SDS011;13106;50.808;5.670;2023-04-25T06:18:45;17.52;;;5.30;;
25125;SDS011;13106;50.808;5.670;2023-04-25T06:21:11;16.38;;;4.55;;
25125;SDS011;13106;50.808;5.670;2023-04-25T06:23:37;21.40;;;4.72;;
25125;SDS011;13106;50.808;5.670;2023-04-25T06:26:03;18.48;;;5.03;;
25125;SDS011;13106;50.808;5.670;2023-04-25T06:28:29;21.85;;;4.25;;
25125;SDS011;13106;50.808;5.670;2023-04-25T06:30:55;23.77;;;5.15;;
25125;SDS011;13106;50.808;5.670;2023-04-25T06:33:21;16.45;;;4.75;;
25125;SDS011;13106;50.808;5.670;2023-04-25T06:35:49;18.55;;;4.82;;
25125;SDS011;13106;50.808;5.670;2023-04-25T06:38:15;22.33;;;4.72;;
25125;SDS011;13106;50.808;5.670;2023-04-25T06:40:41;15.32;;;4.43;;
25125;SDS011;13106;50.808;5.670;2023-04-25T06:43:07;18.35;;;4.32;;
25125;SDS011;13106;50.808;5.670;2023-04-25T06:45:33;14.25;;;4.32;;
25125;SDS011;13106;50.808;5.670;2023-04-25T06:47:59;25.27;;;4.63;;
25125;SDS011;13106;50.808;5.670;2023-04-25T06:50:26;15.77;;;4.10;;
25125;SDS011;13106;50.808;5.670;2023-04-25T06:52:52;11.07;;;4.03;;
25125;SDS011;13106;50.808;5.670;2023-04-25T06:55:18;15.40;;;3.63;;
25125;SDS011;13106;50.808;5.670;2023-04-25T06:57:44;11.38;;;3.47;;
25125;SDS011;13106;50.808;5.670;2023-04-25T07:00:10;9.50;;;2.83;;
25125;SDS011;13106;50.808;5.670;2023-04-25T07:02:37;17.88;;;3.03;;
25125;SDS011;13106;50.808;5.670;2023-04-25T07:05:03;14.77;;;3.33;;
25125;SDS011;13106;50.808;5.670;2023-04-25T07:07:30;15.00;;;3.53;;
25125;SDS011;13106;50.808;5.670;2023-04-25T07:09:56;15.38;;;3.08;;
25125;SDS011;13106;50.808;5.670;2023-04-25T07:12:22;9.35;;;3.00;;
25125;SDS011;13106;50.808;5.670;2023-04-25T07:14:48;14.85;;;3.70;;
25125;SDS011;13106;50.808;5.670;2023-04-25T07:17:23;14.90;;;3.08;;
25125;SDS011;13106;50.808;5.670;2023-04-25T07:19:49;15.15;;;3.55;;
25125;SDS011;13106;50.808;5.670;2023-04-25T07:22:15;17.17;;;3.35;;
25125;SDS011;13106;50.808;5.670;2023-04-25T07:24:41;12.40;;;3.30;;
25125;SDS011;13106;50.808;5.670;2023-04-25T07:27:07;17.30;;;4.43;;
25125;SDS011;13106;50.808;5.670;2023-04-25T07:29:33;17.13;;;3.38;;
25125;SDS011;13106;50.808;5.670;2023-04-25T07:32:02;12.48;;;3.42;;
25125;SDS011;13106;50.808;5.670;2023-04-25T07:34:28;17.75;;;3.22;;
25125;SDS011;13106;50.808;5.670;2023-04-25T07:36:55;14.70;;;3.53;;
25125;SDS011;13106;50.808;5.670;2023-04-25T07:39:21;14.13;;;3.65;;
25125;SDS011;13106;50.808;5.670;2023-04-25T07:41:48;28.27;;;4.35;;
25125;SDS011;13106;50.808;5.670;2023-04-25T07:44:14;21.33;;;3.85;;
25125;SDS011;13106;50.808;5.670;2023-04-25T07:46:40;17.05;;;4.80;;
25125;SDS011;13106;50.808;5.670;2023-04-25T07:49:06;17.77;;;3.70;;
25125;SDS011;13106;50.808;5.670;2023-04-25T07:51:32;14.77;;;4.50;;
25125;SDS011;13106;50.808;5.670;2023-04-25T07:53:58;25.30;;;5.78;;
25125;SDS011;13106;50.808;5.670;2023-04-25T07:56:24;18.80;;;6.65;;
25125;SDS011;13106;50.808;5.670;2023-04-25T07:58:50;20.70;;;4.93;;
25125;SDS011;13106;50.808;5.670;2023-04-25T08:01:16;21.10;;;4.72;;
25125;SDS011;13106;50.808;5.670;2023-04-25T08:03:43;23.20;;;5.30;;
25125;SDS011;13106;50.808;5.670;2023-04-25T08:06:09;15.32;;;4.22;;
25125;SDS011;13106;50.808;5.670;2023-04-25T08:08:36;15.23;;;4.85;;
25125;SDS011;13106;50.808;5.670;2023-04-25T08:11:02;18.08;;;4.70;;
25125;SDS011;13106;50.808;5.670;2023-04-25T08:13:28;21.38;;;5.80;;
25125;SDS011;13106;50.808;5.670;2023-04-25T08:15:54;19.20;;;5.35;;
25125;SDS011;13106;50.808;5.670;2023-04-25T08:18:22;20.25;;;4.85;;
25125;SDS011;13106;50.808;5.670;2023-04-25T08:20:48;20.65;;;5.32;;
25125;SDS011;13106;50.808;5.670;2023-04-25T08:23:14;16.52;;;5.05;;
25125;SDS011;13106;50.808;5.670;2023-04-25T08:25:40;19.90;;;5.63;;
25125;SDS011;13106;50.808;5.670;2023-04-25T08:28:06;19.20;;;4.47;;
25125;SDS011;13106;50.808;5.670;2023-04-25T08:30:32;20.92;;;4.40;;
25125;SDS011;13106;50.808;5.670;2023-04-25T08:32:58;14.98;;;4.50;;
25125;SDS011;13106;50.808;5.670;2023-04-25T08:35:24;17.13;;;4.75;;
25125;SDS011;13106;50.808;5.670;2023-04-25T08:37:50;15.70;;;3.80;;
25125;SDS011;13106;50.808;5.670;2023-04-25T08:40:17;17.45;;;3.88;;
25125;SDS011;13106;50.808;5.670;2023-04-25T08:42:43;15.50;;;3.72;;
25125;SDS011;13106;50.808;5.670;2023-04-25T08:45:09;12.95;;;3.97;;
25125;SDS011;13106;50.808;5.670;2023-04-25T08:47:35;20.33;;;8.10;;
25125;SDS011;13106;50.808;5.670;2023-04-25T08:50:03;17.90;;;4.57;;
25125;SDS011;13106;50.808;5.670;2023-04-25T08:52:32;21.08;;;4.60;;
25125;SDS011;13106;50.808;5.670;2023-04-25T08:55:01;16.48;;;4.07;;
25125;SDS011;13106;50.808;5.670;2023-04-25T08:57:31;14.25;;;4.70;;
25125;SDS011;13106;50.808;5.670;2023-04-25T08:59:57;15.70;;;4.03;;
25125;SDS011;13106;50.808;5.670;2023-04-25T09:02:24;18.42;;;4.68;;
25125;SDS011;13106;50.808;5.670;2023-04-25T09:04:50;19.23;;;4.75;;
25125;SDS011;13106;50.808;5.670;2023-04-25T09:07:16;15.80;;;4.00;;
25125;SDS011;13106;50.808;5.670;2023-04-25T09:09:46;16.80;;;4.25;;
25125;SDS011;13106;50.808;5.670;2023-04-25T09:12:12;16.58;;;4.32;;
25125;SDS011;13106;50.808;5.670;2023-04-25T09:14:38;13.57;;;4.15;;
25125;SDS011;13106;50.808;5.670;2023-04-25T09:17:04;16.55;;;3.60;;
25125;SDS011;13106;50.808;5.670;2023-04-25T09:19:33;12.07;;;4.72;;
25125;SDS011;13106;50.808;5.670;2023-04-25T09:22:01;14.70;;;3.47;;
25125;SDS011;13106;50.808;5.670;2023-04-25T09:24:43;14.63;;;4.15;;
25125;SDS011;13106;50.808;5.670;2023-04-25T09:27:11;17.58;;;3.92;;
25125;SDS011;13106;50.808;5.670;2023-04-25T09:29:38;14.63;;;4.95;;
25125;SDS011;13106;50.808;5.670;2023-04-25T09:34:42;15.75;;;4.60;;
25125;SDS011;13106;50.808;5.670;2023-04-25T09:37:09;10.25;;;3.03;;
25125;SDS011;13106;50.808;5.670;2023-04-25T09:39:36;18.17;;;3.75;;
25125;SDS011;13106;50.808;5.670;2023-04-25T09:42:03;10.85;;;3.28;;
25125;SDS011;13106;50.808;5.670;2023-04-25T09:44:29;15.55;;;3.15;;
25125;SDS011;13106;50.808;5.670;2023-04-25T09:46:55;10.00;;;2.67;;
25125;SDS011;13106;50.808;5.670;2023-04-25T09:49:22;11.30;;;2.60;;
25125;SDS011;13106;50.808;5.670;2023-04-25T09:51:58;9.48;;;3.08;;
25125;SDS011;13106;50.808;5.670;2023-04-25T09:54:25;12.75;;;3.17;;
25125;SDS011;13106;50.808;5.670;2023-04-25T09:56:53;9.95;;;2.95;;
25125;SDS011;13106;50.808;5.670;2023-04-25T09:59:20;12.80;;;3.17;;
25125;SDS011;13106;50.808;5.670;2023-04-25T10:01:47;10.73;;;3.08;;
25125;SDS011;13106;50.808;5.670;2023-04-25T10:04:15;9.30;;;2.40;;
25125;SDS011;13106;50.808;5.670;2023-04-25T10:09:11;14.60;;;2.90;;
25125;SDS011;13106;50.808;5.670;2023-04-25T10:11:38;12.07;;;2.75;;
25125;SDS011;13106;50.808;5.670;2023-04-25T10:14:05;12.32;;;2.67;;
25125;SDS011;13106;50.808;5.670;2023-04-25T10:16:31;10.50;;;2.80;;
25125;SDS011;13106;50.808;5.670;2023-04-25T10:18:58;9.60;;;3.60;;
25125;SDS011;13106;50.808;5.670;2023-04-25T10:21:24;11.50;;;4.50;;
25125;SDS011;13106;50.808;5.670;2023-04-25T10:23:52;13.57;;;3.42;;
25125;SDS011;13106;50.808;5.670;2023-04-25T10:26:19;15.95;;;3.75;;
25125;SDS011;13106;50.808;5.670;2023-04-25T10:28:55;8.35;;;3.25;;
25125;SDS011;13106;50.808;5.670;2023-04-25T10:31:21;8.77;;;3.15;;
25125;SDS011;13106;50.808;5.670;2023-04-25T10:33:48;9.68;;;3.55;;
25125;SDS011;13106;50.808;5.670;2023-04-25T10:36:15;8.80;;;2.80;;
25125;SDS011;13106;50.808;5.670;2023-04-25T10:38:43;14.65;;;3.10;;
25125;SDS011;13106;50.808;5.670;2023-04-25T10:41:10;9.98;;;2.88;;
25125;SDS011;13106;50.808;5.670;2023-04-25T10:43:46;10.50;;;3.92;;
25125;SDS011;13106;50.808;5.670;2023-04-25T10:46:13;6.78;;;3.67;;
25125;SDS011;13106;50.808;5.670;2023-04-25T10:48:43;14.02;;;5.65;;
25125;SDS011;13106;50.808;5.670;2023-04-25T10:51:11;9.00;;;3.42;;
25125;SDS011;13106;50.808;5.670;2023-04-25T10:53:37;11.95;;;2.95;;
25125;SDS011;13106;50.808;5.670;2023-04-25T10:56:19;13.43;;;3.75;;
25125;SDS011;13106;50.808;5.670;2023-04-25T10:58:46;11.55;;;3.63;;
25125;SDS011;13106;50.808;5.670;2023-04-25T11:01:13;8.77;;;2.97;;
25125;SDS011;13106;50.808;5.670;2023-04-25T11:03:40;12.43;;;3.22;;
25125;SDS011;13106;50.808;5.670;2023-04-25T11:06:07;10.40;;;2.67;;
25125;SDS011;13106;50.808;5.670;2023-04-25T11:08:40;7.55;;;2.30;;
25125;SDS011;13106;50.808;5.670;2023-04-25T11:11:11;7.50;;;2.75;;
25125;SDS011;13106;50.808;5.670;2023-04-25T11:13:37;10.35;;;3.17;;
25125;SDS011;13106;50.808;5.670;2023-04-25T11:16:07;9.38;;;2.70;;
25125;SDS011;13106;50.808;5.670;2023-04-25T11:18:33;9.27;;;2.42;;
25125;SDS011;13106;50.808;5.670;2023-04-25T11:20:59;11.45;;;3.15;;
25125;SDS011;13106;50.808;5.670;2023-04-25T11:23:26;8.02;;;2.20;;
25125;SDS011;13106;50.808;5.670;2023-04-25T11:25:52;6.70;;;2.35;;
25125;SDS011;13106;50.808;5.670;2023-04-25T11:28:21;12.20;;;2.85;;
25125;SDS011;13106;50.808;5.670;2023-04-25T11:30:51;8.02;;;1.83;;
25125;SDS011;13106;50.808;5.670;2023-04-25T11:33:18;9.40;;;2.05;;
25125;SDS011;13106;50.808;5.670;2023-04-25T11:35:44;8.57;;;2.28;;
25125;SDS011;13106;50.808;5.670;2023-04-25T11:38:10;9.95;;;2.38;;
25125;SDS011;13106;50.808;5.670;2023-04-25T11:40:36;14.05;;;2.75;;
25125;SDS011;13106;50.808;5.670;2023-04-25T11:43:02;7.95;;;1.88;;
25125;SDS011;13106;50.808;5.670;2023-04-25T11:45:28;7.43;;;2.00;;
25125;SDS011;13106;50.808;5.670;2023-04-25T11:47:56;6.93;;;1.88;;
25125;SDS011;13106;50.808;5.670;2023-04-25T11:50:22;7.32;;;1.70;;
25125;SDS011;13106;50.808;5.670;2023-04-25T11:52:48;6.85;;;1.58;;
25125;SDS011;13106;50.808;5.670;2023-04-25T11:55:15;5.13;;;1.80;;
25125;SDS011;13106;50.808;5.670;2023-04-25T11:57:42;4.70;;;1.48;;
25125;SDS011;13106;50.808;5.670;2023-04-25T12:00:12;7.50;;;2.00;;
25125;SDS011;13106;50.808;5.670;2023-04-25T12:05:08;9.15;;;1.88;;
25125;SDS011;13106;50.808;5.670;2023-04-25T12:07:35;4.68;;;1.55;;
25125;SDS011;13106;50.808;5.670;2023-04-25T12:10:05;6.88;;;2.42;;
25125;SDS011;13106;50.808;5.670;2023-04-25T12:12:33;8.00;;;2.00;;
25125;SDS011;13106;50.808;5.670;2023-04-25T12:15:09;6.78;;;1.80;;
25125;SDS011;13106;50.808;5.670;2023-04-25T12:17:36;7.30;;;2.00;;
25125;SDS011;13106;50.808;5.670;2023-04-25T12:20:06;7.47;;;1.63;;
25125;SDS011;13106;50.808;5.670;2023-04-25T12:22:33;6.95;;;1.80;;
25125;SDS011;13106;50.808;5.670;2023-04-25T12:24:59;6.45;;;1.92;;
25125;SDS011;13106;50.808;5.670;2023-04-25T12:27:28;4.68;;;1.45;;
25125;SDS011;13106;50.808;5.670;2023-04-25T12:29:56;4.60;;;1.52;;
25125;SDS011;13106;50.808;5.670;2023-04-25T12:32:23;6.68;;;1.77;;
25125;SDS011;13106;50.808;5.670;2023-04-25T12:34:49;9.02;;;1.98;;
25125;SDS011;13106;50.808;5.670;2023-04-25T12:37:15;9.93;;;1.35;;
25125;SDS011;13106;50.808;5.670;2023-04-25T12:39:41;6.65;;;1.42;;
25125;SDS011;13106;50.808;5.670;2023-04-25T12:42:07;5.57;;;1.55;;
25125;SDS011;13106;50.808;5.670;2023-04-25T12:44:36;7.50;;;1.38;;
25125;SDS011;13106;50.808;5.670;2023-04-25T12:47:02;6.80;;;1.60;;
25125;SDS011;13106;50.808;5.670;2023-04-25T12:49:29;4.50;;;1.20;;
25125;SDS011;13106;50.808;5.670;2023-04-25T12:51:55;5.20;;;1.80;;
25125;SDS011;13106;50.808;5.670;2023-04-25T12:54:21;6.15;;;1.27;;
25125;SDS011;13106;50.808;5.670;2023-04-25T12:56:47;4.22;;;1.38;;
25125;SDS011;13106;50.808;5.670;2023-04-25T12:59:13;6.13;;;1.85;;
25125;SDS011;13106;50.808;5.670;2023-04-25T13:01:39;6.45;;;1.50;;
25125;SDS011;13106;50.808;5.670;2023-04-25T13:04:05;4.70;;;1.50;;
25125;SDS011;13106;50.808;5.670;2023-04-25T13:06:31;4.00;;;1.73;;
25125;SDS011;13106;50.808;5.670;2023-04-25T13:08:57;5.50;;;2.22;;
25125;SDS011;13106;50.808;5.670;2023-04-25T13:11:23;5.85;;;1.48;;
25125;SDS011;13106;50.808;5.670;2023-04-25T13:13:49;7.72;;;1.65;;
25125;SDS011;13106;50.808;5.670;2023-04-25T13:16:15;9.15;;;2.25;;
25125;SDS011;13106;50.808;5.670;2023-04-25T13:18:42;7.32;;;2.00;;
25125;SDS011;13106;50.808;5.670;2023-04-25T13:21:09;5.80;;;2.05;;
25125;SDS011;13106;50.808;5.670;2023-04-25T13:23:36;6.50;;;1.70;;
25125;SDS011;13106;50.808;5.670;2023-04-25T13:26:02;4.15;;;1.60;;
25125;SDS011;13106;50.808;5.670;2023-04-25T13:28:28;6.03;;;2.10;;
25125;SDS011;13106;50.808;5.670;2023-04-25T13:30:54;6.55;;;1.67;;
25125;SDS011;13106;50.808;5.670;2023-04-25T13:33:20;7.22;;;4.65;;
25125;SDS011;13106;50.808;5.670;2023-04-25T13:35:48;7.57;;;1.70;;
25125;SDS011;13106;50.808;5.670;2023-04-25T13:38:22;5.65;;;1.73;;
25125;SDS011;13106;50.808;5.670;2023-04-25T13:40:48;6.90;;;1.83;;
25125;SDS011;13106;50.808;5.670;2023-04-25T13:43:14;7.78;;;1.98;;
25125;SDS011;13106;50.808;5.670;2023-04-25T13:45:41;8.23;;;2.40;;
25125;SDS011;13106;50.808;5.670;2023-04-25T13:48:07;9.65;;;1.52;;
25125;SDS011;13106;50.808;5.670;2023-04-25T13:50:33;9.30;;;1.90;;
25125;SDS011;13106;50.808;5.670;2023-04-25T13:53:01;10.20;;;1.90;;
25125;SDS011;13106;50.808;5.670;2023-04-25T13:55:27;7.22;;;2.13;;
25125;SDS011;13106;50.808;5.670;2023-04-25T13:57:53;6.15;;;1.75;;
25125;SDS011;13106;50.808;5.670;2023-04-25T14:00:19;8.57;;;1.92;;
25125;SDS011;13106;50.808;5.670;2023-04-25T14:02:46;11.02;;;1.80;;
25125;SDS011;13106;50.808;5.670;2023-04-25T14:05:12;9.35;;;2.03;;
25125;SDS011;13106;50.808;5.670;2023-04-25T14:07:38;5.10;;;1.52;;
25125;SDS011;13106;50.808;5.670;2023-04-25T14:10:04;6.30;;;1.70;;
25125;SDS011;13106;50.808;5.670;2023-04-25T14:12:31;5.90;;;1.83;;
25125;SDS011;13106;50.808;5.670;2023-04-25T14:14:58;5.93;;;2.00;;
25125;SDS011;13106;50.808;5.670;2023-04-25T14:17:24;8.35;;;2.40;;
25125;SDS011;13106;50.808;5.670;2023-04-25T14:19:50;6.88;;;1.65;;
25125;SDS011;13106;50.808;5.670;2023-04-25T14:22:16;5.68;;;1.80;;
25125;SDS011;13106;50.808;5.670;2023-04-25T14:24:42;5.90;;;1.92;;
25125;SDS011;13106;50.808;5.670;2023-04-25T14:27:08;6.13;;;1.80;;
25125;SDS011;13106;50.808;5.670;2023-04-25T14:29:35;5.53;;;1.63;;
25125;SDS011;13106;50.808;5.670;2023-04-25T14:32:01;4.82;;;1.67;;
25125;SDS011;13106;50.808;5.670;2023-04-25T14:34:27;9.90;;;2.17;;
25125;SDS011;13106;50.808;5.670;2023-04-25T14:36:53;5.43;;;1.60;;
25125;SDS011;13106;50.808;5.670;2023-04-25T14:39:20;6.90;;;1.90;;
25125;SDS011;13106;50.808;5.670;2023-04-25T14:41:46;6.93;;;1.70;;